Time;durP1;ratioP1;P1;durP2;ratioP2;P2;SDS_P1;SDS_P2;PMS_P1;PMS_P2;Temp;Humidity;BMP_temperature;BMP_pressure;BME280_temperature;BME280_humidity;BME280_pressure;Samples;Min_cycle;Max_cycle;Signal;HPM_P1;HPM_P2
2022/01/29 00:01:58;;;;;;;46.28;36.75;;;;;;;;;;5033074;28;20199;-78
2022/01/29 00:04:25;;;;;;;47.17;37.10;;;;;;;;;;5033458;28;20195;-78
2022/01/29 00:06:52;;;;;;;38.78;34.60;;;;;;;;;;5032429;28;20197;-78
2022/01/29 00:09:20;;;;;;;40.75;36.13;;;;;;;;;;5033127;28;20328;-78
2022/01/29 00:11:47;;;;;;;41.35;33.95;;;;;;;;;;5032737;28;20217;-78
2022/01/29 00:14:14;;;;;;;45.03;37.50;;;;;;;;;;5033035;28;20194;-78
2022/01/29 00:16:43;;;;;;;44.13;35.38;;;;;;;;;;5032975;28;20575;-78
2022/01/29 00:19:10;;;;;;;53.70;40.75;;;;;;;;;;5032923;28;20195;-78
2022/01/29 00:21:37;;;;;;;48.47;40.53;;;;;;;;;;5032777;28;20641;-78
2022/01/29 00:24:05;;;;;;;35.67;32.03;;;;;;;;;;5033189;28;20206;-78
2022/01/29 00:26:32;;;;;;;45.83;35.65;;;;;;;;;;5032853;28;20645;-78
2022/01/29 00:29:05;;;;;;;50.83;39.30;;;;;;;;;;5032604;28;20699;-78
2022/01/29 00:31:32;;;;;;;39.20;34.47;;;;;;;;;;5032829;28;20216;-77
2022/01/29 00:34:01;;;;;;;43.75;39.00;;;;;;;;;;5032812;28;20248;-77
2022/01/29 00:36:28;;;;;;;46.50;40.65;;;;;;;;;;5032736;28;20198;-78
2022/01/29 00:38:56;;;;;;;42.30;34.75;;;;;;;;;;5032788;28;20198;-78
2022/01/29 00:41:23;;;;;;;45.50;38.45;;;;;;;;;;5032545;28;20636;-78
2022/01/29 00:43:50;;;;;;;50.60;38.53;;;;;;;;;;5032524;28;20195;-78
2022/01/29 00:46:18;;;;;;;50.55;39.20;;;;;;;;;;5032840;28;20191;-78
2022/01/29 00:48:45;;;;;;;30.52;27.52;;;;;;;;;;5032536;28;20210;-78
2022/01/29 00:51:14;;;;;;;43.63;34.65;;;;;;;;;;5032595;28;20192;-78
2022/01/29 00:53:41;;;;;;;51.10;37.67;;;;;;;;;;5032804;28;20635;-78
2022/01/29 00:56:10;;;;;;;43.85;36.10;;;;;;;;;;5032815;28;20191;-78
2022/01/29 00:58:37;;;;;;;58.22;35.38;;;;;;;;;;5032827;28;20252;-78
2022/01/29 01:01:04;;;;;;;44.13;35.80;;;;;;;;;;5032357;28;20190;-78
2022/01/29 01:03:32;;;;;;;43.13;37.58;;;;;;;;;;5032699;28;20195;-78
2022/01/29 01:05:59;;;;;;;37.08;33.08;;;;;;;;;;5032621;28;20206;-78
2022/01/29 01:08:28;;;;;;;37.22;33.40;;;;;;;;;;5032685;28;20223;-78
2022/01/29 01:10:55;;;;;;;31.70;28.60;;;;;;;;;;5032205;28;20229;-78
2022/01/29 01:13:23;;;;;;;31.35;28.08;;;;;;;;;;5032253;28;20276;-78
2022/01/29 01:15:50;;;;;;;45.58;34.08;;;;;;;;;;5032659;28;20198;-78
2022/01/29 01:18:18;;;;;;;32.78;29.63;;;;;;;;;;5036135;28;20635;-78
2022/01/29 01:20:45;;;;;;;42.90;37.70;;;;;;;;;;5036204;28;20210;-78
2022/01/29 01:23:12;;;;;;;31.40;28.45;;;;;;;;;;5036158;28;20192;-78
2022/01/29 01:25:41;;;;;;;33.40;30.10;;;;;;;;;;5036063;28;20207;-78
2022/01/29 01:28:09;;;;;;;27.98;25.33;;;;;;;;;;5036350;28;20245;-78
2022/01/29 01:30:36;;;;;;;31.10;26.63;;;;;;;;;;5036287;28;20236;-78
2022/01/29 01:33:04;;;;;;;39.17;34.92;;;;;;;;;;5036195;28;20301;-78
2022/01/29 01:35:35;;;;;;;36.20;31.17;;;;;;;;;;5036214;28;20204;-78
2022/01/29 01:38:10;;;;;;;37.15;32.80;;;;;;;;;;5035885;28;20206;-78
2022/01/29 01:40:39;;;;;;;37.88;31.23;;;;;;;;;;5035751;28;20269;-78
2022/01/29 01:43:08;;;;;;;29.08;26.13;;;;;;;;;;5036246;28;20225;-78
2022/01/29 01:45:35;;;;;;;39.40;32.42;;;;;;;;;;5036073;28;20553;-78
2022/01/29 01:48:06;;;;;;;35.63;32.03;;;;;;;;;;5035697;28;20285;-78
2022/01/29 01:50:33;;;;;;;52.33;33.20;;;;;;;;;;5035778;28;20189;-78
2022/01/29 01:53:01;;;;;;;34.20;30.10;;;;;;;;;;5035590;28;20648;-77
2022/01/29 01:55:28;;;;;;;31.80;28.75;;;;;;;;;;5035576;28;20695;-78
2022/01/29 01:57:57;;;;;;;32.08;28.65;;;;;;;;;;5035944;28;20198;-77
2022/01/29 02:00:26;;;;;;;34.13;30.75;;;;;;;;;;5035433;28;20190;-78
2022/01/29 02:02:53;;;;;;;33.70;30.58;;;;;;;;;;5035498;28;20201;-79
2022/01/29 02:05:21;;;;;;;36.28;32.33;;;;;;;;;;5035370;28;20240;-77
2022/01/29 02:07:48;;;;;;;44.47;34.33;;;;;;;;;;5017491;28;20230;-78
2022/01/29 02:10:17;;;;;;;37.50;33.55;;;;;;;;;;5035198;28;20230;-78
2022/01/29 02:12:46;;;;;;;30.23;27.33;;;;;;;;;;5035292;28;20238;-78
2022/01/29 02:15:14;;;;;;;32.95;29.48;;;;;;;;;;5035464;28;20200;-78
2022/01/29 02:17:44;;;;;;;31.00;28.00;;;;;;;;;;5035315;28;20207;-78
2022/01/29 02:20:12;;;;;;;34.20;30.85;;;;;;;;;;5035100;28;20205;-78
2022/01/29 02:22:41;;;;;;;32.80;29.58;;;;;;;;;;5034997;28;20199;-78
2022/01/29 02:25:28;;;;;;;41.15;34.50;;;;;;;;;;5035282;28;20195;-78
2022/01/29 02:27:56;;;;;;;40.65;36.33;;;;;;;;;;5035033;28;20225;-78
2022/01/29 02:30:23;;;;;;;33.40;29.88;;;;;;;;;;5034865;28;20198;-78
2022/01/29 02:32:51;;;;;;;38.05;34.20;;;;;;;;;;5034974;28;20543;-78
2022/01/29 02:35:18;;;;;;;43.90;36.63;;;;;;;;;;5035248;28;20298;-78
2022/01/29 02:37:51;;;;;;;38.70;34.70;;;;;;;;;;5034898;28;20200;-78
2022/01/29 02:40:18;;;;;;;29.38;26.60;;;;;;;;;;5034967;28;20196;-78
2022/01/29 02:42:46;;;;;;;25.40;23.35;;;;;;;;;;5034590;28;20188;-78
2022/01/29 02:45:13;;;;;;;43.45;30.15;;;;;;;;;;5034608;28;20233;-78
2022/01/29 02:47:40;;;;;;;40.67;32.10;;;;;;;;;;5034840;28;20549;-78
2022/01/29 02:50:08;;;;;;;41.50;37.10;;;;;;;;;;5034957;28;20657;-78
2022/01/29 02:52:36;;;;;;;45.88;38.03;;;;;;;;;;5034728;28;20198;-78
2022/01/29 02:55:05;;;;;;;42.90;37.35;;;;;;;;;;5034637;28;20214;-78
2022/01/29 02:57:32;;;;;;;42.10;37.60;;;;;;;;;;5034819;28;20186;-78
2022/01/29 03:00:00;;;;;;;34.63;28.15;;;;;;;;;;5034689;28;20639;-78
2022/01/29 03:02:28;;;;;;;36.28;32.65;;;;;;;;;;5034554;28;20265;-78
2022/01/29 03:04:57;;;;;;;30.15;27.40;;;;;;;;;;5034661;28;20222;-78
2022/01/29 03:07:24;;;;;;;28.50;25.67;;;;;;;;;;5034336;28;20241;-78
2022/01/29 03:09:51;;;;;;;33.00;29.67;;;;;;;;;;5034115;28;20571;-78
2022/01/29 03:12:20;;;;;;;47.20;39.75;;;;;;;;;;5034147;28;20247;-78
2022/01/29 03:14:48;;;;;;;39.08;34.78;;;;;;;;;;5034188;28;20640;-78
2022/01/29 03:17:15;;;;;;;39.80;35.50;;;;;;;;;;5016356;28;20253;-78
2022/01/29 03:19:42;;;;;;;50.35;42.67;;;;;;;;;;5034290;28;20202;-79
2022/01/29 03:22:10;;;;;;;37.08;33.10;;;;;;;;;;5033930;28;20199;-78
2022/01/29 03:24:37;;;;;;;32.53;29.35;;;;;;;;;;5034197;28;20195;-78
2022/01/29 03:27:05;;;;;;;46.10;37.72;;;;;;;;;;5033921;28;20194;-77
2022/01/29 03:29:33;;;;;;;32.75;29.33;;;;;;;;;;5033931;28;20219;-78
2022/01/29 03:32:01;;;;;;;47.58;41.30;;;;;;;;;;5033700;28;20191;-78
2022/01/29 03:34:28;;;;;;;40.95;36.70;;;;;;;;;;5034089;28;20191;-78
2022/01/29 03:36:56;;;;;;;42.97;38.58;;;;;;;;;;5033843;28;20191;-78
2022/01/29 03:39:25;;;;;;;51.63;44.63;;;;;;;;;;5033573;28;20624;-78
2022/01/29 03:41:53;;;;;;;38.08;34.15;;;;;;;;;;5032960;28;20190;-78
2022/01/29 03:44:21;;;;;;;43.22;36.63;;;;;;;;;;5033578;28;20226;-78
2022/01/29 03:46:49;;;;;;;42.47;37.50;;;;;;;;;;5033875;28;20557;-78
2022/01/29 03:49:17;;;;;;;37.95;33.90;;;;;;;;;;5033387;28;20706;-78
2022/01/29 03:51:44;;;;;;;54.13;42.35;;;;;;;;;;5033579;28;20196;-79
2022/01/29 03:54:11;;;;;;;48.30;40.63;;;;;;;;;;5033594;28;20209;-78
2022/01/29 03:56:39;;;;;;;47.95;38.75;;;;;;;;;;5033588;28;20195;-79
2022/01/29 03:59:06;;;;;;;44.90;38.10;;;;;;;;;;5033672;28;20195;-78
2022/01/29 04:01:33;;;;;;;44.50;37.20;;;;;;;;;;5033171;28;20210;-78
2022/01/29 04:04:02;;;;;;;49.55;41.67;;;;;;;;;;5033193;28;20657;-77
2022/01/29 04:06:31;;;;;;;34.15;30.55;;;;;;;;;;5033084;28;20214;-78
2022/01/29 04:09:02;;;;;;;38.70;30.42;;;;;;;;;;5033315;28;20300;-78
2022/01/29 04:11:30;;;;;;;43.10;38.50;;;;;;;;;;5032892;28;20186;-78
2022/01/29 04:13:58;;;;;;;44.40;39.60;;;;;;;;;;5033054;28;20231;-78
2022/01/29 04:16:25;;;;;;;38.17;29.90;;;;;;;;;;5032965;28;20244;-78
2022/01/29 04:18:52;;;;;;;41.53;37.00;;;;;;;;;;4999050;28;20205;-78
2022/01/29 04:21:21;;;;;;;36.30;32.85;;;;;;;;;;5033186;28;20260;-78
2022/01/29 04:23:48;;;;;;;54.58;44.40;;;;;;;;;;5033475;28;20199;-78
2022/01/29 04:26:16;;;;;;;32.55;29.33;;;;;;;;;;5033245;28;20587;-78
2022/01/29 04:28:44;;;;;;;34.45;30.92;;;;;;;;;;5032764;28;20214;-78
2022/01/29 04:31:16;;;;;;;32.08;29.15;;;;;;;;;;5032674;28;20221;-78
2022/01/29 04:33:43;;;;;;;42.97;38.38;;;;;;;;;;5033052;28;20202;-78
2022/01/29 04:36:11;;;;;;;56.28;42.83;;;;;;;;;;5032681;28;20572;-78
2022/01/29 04:38:39;;;;;;;34.28;31.15;;;;;;;;;;5032713;28;20197;-78
2022/01/29 04:41:07;;;;;;;37.05;33.25;;;;;;;;;;5032913;28;20187;-78
2022/01/29 04:43:35;;;;;;;42.72;34.25;;;;;;;;;;5032928;28;20289;-78
2022/01/29 04:46:02;;;;;;;39.63;35.25;;;;;;;;;;5032562;28;20196;-79
2022/01/29 04:48:30;;;;;;;60.00;44.78;;;;;;;;;;5032830;28;20224;-78
2022/01/29 04:50:57;;;;;;;39.40;35.00;;;;;;;;;;5032540;28;20197;-78
2022/01/29 04:53:24;;;;;;;55.55;40.47;;;;;;;;;;5032293;28;20233;-78
2022/01/29 04:55:53;;;;;;;59.05;45.95;;;;;;;;;;5032483;28;20190;-78
2022/01/29 04:58:21;;;;;;;64.35;47.25;;;;;;;;;;5032495;28;20661;-78
2022/01/29 05:00:48;;;;;;;58.22;45.20;;;;;;;;;;5032399;28;20610;-78
2022/01/29 05:03:16;;;;;;;49.42;39.97;;;;;;;;;;5032577;28;20191;-79
2022/01/29 05:05:44;;;;;;;34.90;31.33;;;;;;;;;;5032514;28;20187;-79
2022/01/29 05:08:13;;;;;;;53.70;43.53;;;;;;;;;;5032765;28;20197;-78
2022/01/29 05:10:40;;;;;;;46.95;37.28;;;;;;;;;;5032590;28;20613;-78
2022/01/29 05:13:12;;;;;;;45.08;38.13;;;;;;;;;;5032106;28;20714;-78
2022/01/29 05:15:42;;;;;;;33.55;30.08;;;;;;;;;;5032744;28;20190;-79
2022/01/29 05:29:12;;;;;;;32.13;28.95;;;;;;;;;;5032248;28;20741;-78
2022/01/29 05:31:39;;;;;;;41.95;37.38;;;;;;;;;;5032134;28;20719;-78
2022/01/29 05:34:07;;;;;;;48.90;42.13;;;;;;;;;;5032444;28;20553;-78
2022/01/29 05:36:34;;;;;;;48.88;38.95;;;;;;;;;;5032395;28;20194;-78
2022/01/29 05:39:02;;;;;;;34.90;31.25;;;;;;;;;;5032261;28;20548;-78
2022/01/29 05:41:29;;;;;;;38.95;34.95;;;;;;;;;;5032081;28;20573;-78
2022/01/29 05:43:56;;;;;;;31.88;28.80;;;;;;;;;;5032501;28;20283;-78
2022/01/29 05:46:25;;;;;;;35.05;31.70;;;;;;;;;;5032270;28;20666;-78
2022/01/29 05:48:53;;;;;;;40.70;36.65;;;;;;;;;;5032295;28;20230;-79
2022/01/29 05:51:20;;;;;;;37.47;33.92;;;;;;;;;;5031916;28;20656;-78
2022/01/29 05:53:47;;;;;;;35.08;31.77;;;;;;;;;;5031975;28;20202;-78
2022/01/29 05:56:15;;;;;;;39.88;35.80;;;;;;;;;;5032277;28;20195;-78
2022/01/29 05:58:42;;;;;;;38.63;34.70;;;;;;;;;;5032041;28;20679;-78
2022/01/29 06:01:10;;;;;;;44.80;40.13;;;;;;;;;;5032300;28;20191;-78
2022/01/29 06:03:38;;;;;;;33.83;30.90;;;;;;;;;;5032739;28;20199;-78
2022/01/29 06:06:06;;;;;;;34.95;31.70;;;;;;;;;;5035752;28;20191;-78
2022/01/29 06:08:33;;;;;;;34.42;31.23;;;;;;;;;;5035471;28;20191;-79
2022/01/29 06:11:01;;;;;;;31.05;28.25;;;;;;;;;;5035540;28;20664;-78
2022/01/29 06:13:28;;;;;;;37.42;33.90;;;;;;;;;;5035132;28;20692;-78
2022/01/29 06:15:56;;;;;;;44.42;39.80;;;;;;;;;;5035624;28;20699;-78
2022/01/29 06:18:24;;;;;;;37.22;33.58;;;;;;;;;;5035488;28;20571;-78
2022/01/29 06:20:54;;;;;;;38.35;34.53;;;;;;;;;;5035403;28;20196;-78
2022/01/29 06:23:29;;;;;;;32.53;29.38;;;;;;;;;;5035325;28;20210;-77
2022/01/29 06:25:56;;;;;;;43.22;38.63;;;;;;;;;;5035017;28;20195;-78
2022/01/29 06:28:23;;;;;;;40.10;36.40;;;;;;;;;;5035242;28;20199;-78
2022/01/29 06:30:51;;;;;;;48.45;42.60;;;;;;;;;;5034735;28;20237;-78
2022/01/29 06:33:19;;;;;;;44.83;39.95;;;;;;;;;;5034960;28;20196;-78
2022/01/29 06:35:46;;;;;;;37.15;33.65;;;;;;;;;;5035201;28;20550;-79
2022/01/29 06:38:16;;;;;;;39.60;35.63;;;;;;;;;;5035051;28;20229;-77
2022/01/29 06:40:44;;;;;;;40.85;35.22;;;;;;;;;;5034776;28;20199;-78
2022/01/29 06:43:11;;;;;;;45.35;40.65;;;;;;;;;;5034953;28;20219;-77
2022/01/29 06:45:40;;;;;;;38.45;34.65;;;;;;;;;;5035007;28;20193;-78
2022/01/29 06:48:07;;;;;;;51.17;43.40;;;;;;;;;;5034755;28;20191;-78
2022/01/29 06:50:35;;;;;;;39.13;35.58;;;;;;;;;;5034511;28;20230;-77
2022/01/29 06:53:03;;;;;;;36.28;33.13;;;;;;;;;;5034559;28;20188;-78
2022/01/29 06:55:32;;;;;;;39.17;35.08;;;;;;;;;;5034525;28;20188;-78
2022/01/29 06:57:59;;;;;;;38.22;34.55;;;;;;;;;;5034594;28;20205;-78
2022/01/29 07:00:27;;;;;;;38.45;34.60;;;;;;;;;;5034652;28;20204;-78
2022/01/29 07:02:54;;;;;;;54.10;46.50;;;;;;;;;;5034663;28;20195;-79
2022/01/29 07:05:21;;;;;;;42.88;38.72;;;;;;;;;;5034622;28;20199;-78
2022/01/29 07:07:49;;;;;;;53.03;45.85;;;;;;;;;;5034623;28;20202;-78
2022/01/29 07:10:16;;;;;;;39.45;35.30;;;;;;;;;;5034363;28;20330;-78
2022/01/29 07:12:45;;;;;;;37.58;34.17;;;;;;;;;;5033995;28;20309;-78
2022/01/29 07:15:13;;;;;;;41.08;36.13;;;;;;;;;;5034070;28;20194;-78
2022/01/29 07:17:40;;;;;;;40.03;34.83;;;;;;;;;;5034065;28;20675;-78
2022/01/29 07:20:08;;;;;;;50.42;40.15;;;;;;;;;;5034006;28;20195;-78
2022/01/29 07:22:35;;;;;;;51.40;38.45;;;;;;;;;;5034429;28;20550;-78
2022/01/29 07:25:03;;;;;;;45.83;37.95;;;;;;;;;;5034232;28;20194;-78
2022/01/29 07:27:30;;;;;;;46.72;40.95;;;;;;;;;;5033947;28;20192;-77
2022/01/29 07:29:59;;;;;;;44.20;38.70;;;;;;;;;;5016058;28;20241;-78
2022/01/29 07:32:26;;;;;;;40.80;35.05;;;;;;;;;;5016125;28;20212;-78
2022/01/29 07:34:54;;;;;;;46.70;38.33;;;;;;;;;;5033998;28;20626;-78
2022/01/29 07:37:21;;;;;;;62.28;47.85;;;;;;;;;;5033633;28;20196;-78
2022/01/29 07:39:49;;;;;;;73.60;47.35;;;;;;;;;;5033543;28;20534;-78
2022/01/29 07:42:16;;;;;;;46.08;40.53;;;;;;;;;;5033537;28;20193;-78
2022/01/29 07:44:43;;;;;;;60.47;48.10;;;;;;;;;;5033827;28;20195;-78
2022/01/29 07:47:12;;;;;;;42.40;37.45;;;;;;;;;;5033794;28;20188;-78
2022/01/29 07:49:39;;;;;;;58.50;47.05;;;;;;;;;;5015606;28;20230;-78
2022/01/29 07:52:07;;;;;;;66.50;49.90;;;;;;;;;;5033704;28;20195;-78
2022/01/29 07:54:34;;;;;;;63.38;46.53;;;;;;;;;;5033649;28;20198;-78
2022/01/29 07:57:02;;;;;;;39.67;35.55;;;;;;;;;;5033285;28;20210;-78
2022/01/29 07:59:29;;;;;;;41.67;37.20;;;;;;;;;;5033348;28;20200;-78
2022/01/29 08:01:56;;;;;;;39.13;34.47;;;;;;;;;;5033306;28;20213;-78
2022/01/29 08:04:25;;;;;;;39.47;35.22;;;;;;;;;;5033125;28;20214;-78
2022/01/29 08:06:53;;;;;;;51.58;45.30;;;;;;;;;;5033088;28;20587;-78
2022/01/29 08:09:20;;;;;;;42.05;37.42;;;;;;;;;;5033211;28;20226;-78
2022/01/29 08:11:47;;;;;;;41.60;37.17;;;;;;;;;;5033120;28;20191;-78
2022/01/29 08:14:15;;;;;;;65.32;45.67;;;;;;;;;;5033119;28;20200;-78
2022/01/29 08:16:42;;;;;;;39.75;35.40;;;;;;;;;;5032934;28;20198;-78
2022/01/29 08:19:10;;;;;;;50.60;43.85;;;;;;;;;;5032968;28;20197;-78
2022/01/29 08:21:39;;;;;;;47.80;38.85;;;;;;;;;;5033194;28;20258;-77
2022/01/29 08:24:07;;;;;;;51.25;41.15;;;;;;;;;;5033256;28;20217;-78
2022/01/29 08:26:35;;;;;;;54.17;42.60;;;;;;;;;;5032348;28;20238;-78
2022/01/29 08:29:02;;;;;;;55.50;43.03;;;;;;;;;;5033284;28;20206;-85
2022/01/29 08:31:29;;;;;;;67.45;49.53;;;;;;;;;;5015870;28;20238;-81
2022/01/29 08:33:57;;;;;;;52.85;44.42;;;;;;;;;;5033234;28;20194;-81
2022/01/29 08:36:25;;;;;;;44.00;39.20;;;;;;;;;;5033238;28;20204;-81
2022/01/29 08:38:53;;;;;;;65.00;46.47;;;;;;;;;;5033322;28;20191;-82
2022/01/29 08:41:21;;;;;;;56.53;44.60;;;;;;;;;;5033595;28;20192;-80
2022/01/29 08:43:48;;;;;;;49.20;41.83;;;;;;;;;;5033172;28;20207;-81
2022/01/29 08:46:16;;;;;;;55.17;42.25;;;;;;;;;;5033362;28;20201;-81
2022/01/29 08:48:43;;;;;;;52.67;40.95;;;;;;;;;;5033391;28;20245;-81
2022/01/29 08:51:11;;;;;;;37.33;33.33;;;;;;;;;;5033379;28;20218;-81
2022/01/29 08:53:38;;;;;;;47.63;38.75;;;;;;;;;;5033096;28;20625;-81
2022/01/29 08:56:07;;;;;;;52.67;36.27;;;;;;;;;;5015126;28;20204;-81
2022/01/29 08:58:35;;;;;;;37.85;33.75;;;;;;;;;;5033055;28;20432;-82
2022/01/29 09:01:07;;;;;;;40.33;36.13;;;;;;;;;;5032876;28;20652;-81
2022/01/29 09:03:34;;;;;;;51.40;35.47;;;;;;;;;;5033103;28;20196;-81
2022/01/29 09:06:02;;;;;;;58.33;44.50;;;;;;;;;;5032933;28;20195;-81
2022/01/29 09:08:29;;;;;;;45.30;35.83;;;;;;;;;;5033211;28;20277;-83
2022/01/29 09:10:57;;;;;;;40.42;35.78;;;;;;;;;;5033055;28;20703;-82
2022/01/29 09:13:27;;;;;;;43.33;35.80;;;;;;;;;;5033031;28;20260;-82
2022/01/29 09:15:54;;;;;;;39.90;35.65;;;;;;;;;;5033345;28;21142;-82
2022/01/29 09:18:22;;;;;;;42.90;38.13;;;;;;;;;;5033527;28;20187;-83
2022/01/29 09:20:49;;;;;;;51.10;42.00;;;;;;;;;;5033536;28;20193;-82
2022/01/29 09:23:17;;;;;;;81.97;52.03;;;;;;;;;;5032873;28;20951;-82
2022/01/29 09:25:45;;;;;;;42.97;38.47;;;;;;;;;;5032799;28;20198;-79
2022/01/29 09:28:13;;;;;;;44.50;39.80;;;;;;;;;;5032695;28;20204;-80
2022/01/29 09:30:42;;;;;;;70.85;46.97;;;;;;;;;;5032859;28;20217;-79
2022/01/29 09:33:10;;;;;;;57.88;40.70;;;;;;;;;;5032440;28;20195;-80
2022/01/29 09:35:38;;;;;;;47.25;41.85;;;;;;;;;;5032521;28;20245;-81
2022/01/29 09:38:06;;;;;;;58.63;42.72;;;;;;;;;;5032562;28;20200;-81
2022/01/29 09:40:33;;;;;;;82.22;53.97;;;;;;;;;;5036153;28;20286;-81
2022/01/29 09:43:02;;;;;;;39.17;35.58;;;;;;;;;;5036375;28;20198;-80
2022/01/29 09:45:30;;;;;;;53.50;41.53;;;;;;;;;;5036443;28;20192;-79
2022/01/29 09:48:02;;;;;;;71.30;48.47;;;;;;;;;;5036575;28;20194;-80
2022/01/29 09:50:30;;;;;;;47.55;43.00;;;;;;;;;;5018134;28;20239;-80
2022/01/29 09:52:58;;;;;;;53.20;47.90;;;;;;;;;;5036217;28;20651;-80
2022/01/29 09:55:25;;;;;;;53.58;47.35;;;;;;;;;;5036180;28;20317;-87
2022/01/29 09:57:53;;;;;;;62.07;50.17;;;;;;;;;;5035844;28;20252;-81
2022/01/29 10:00:21;;;;;;;54.95;45.95;;;;;;;;;;5022911;28;20457;-96
2022/01/29 10:03:05;;;;;;;49.80;45.40;;;;;;;;;;5048135;28;20192;-94
2022/01/29 10:05:39;;;;;;;51.00;46.22;;;;;;;;;;5037998;28;20210;-78
2022/01/29 10:08:09;;;;;;;52.30;46.95;;;;;;;;;;5035265;28;20218;-78
2022/01/29 10:10:40;;;;;;;45.38;41.67;;;;;;;;;;5035197;28;20685;-78
2022/01/29 10:13:30;;;;;;;48.17;43.60;;;;;;;;;;5013856;28;20326;-77
2022/01/29 10:16:09;;;;;;;44.58;40.10;;;;;;;;;;5015536;28;20279;-77
2022/01/29 10:18:38;;;;;;;53.10;47.83;;;;;;;;;;5015403;28;20199;-78
2022/01/29 10:21:14;;;;;;;47.35;43.28;;;;;;;;;;5015543;28;20200;-77
2022/01/29 10:23:44;;;;;;;39.20;35.97;;;;;;;;;;5015338;28;20205;-78
2022/01/29 10:26:27;;;;;;;42.60;39.10;;;;;;;;;;5015735;28;20597;-77
2022/01/29 10:28:57;;;;;;;42.13;39.10;;;;;;;;;;5015102;28;20542;-77
2022/01/29 10:31:27;;;;;;;44.28;40.80;;;;;;;;;;5015025;28;20223;-77
2022/01/29 10:33:57;;;;;;;47.38;42.95;;;;;;;;;;5015230;28;20682;-79
2022/01/29 10:36:29;;;;;;;39.55;35.72;;;;;;;;;;5015158;28;20244;-79
2022/01/29 10:39:00;;;;;;;41.05;37.63;;;;;;;;;;5015080;28;20276;-77
2022/01/29 10:41:30;;;;;;;40.17;36.75;;;;;;;;;;5014969;28;20646;-77
2022/01/29 10:44:00;;;;;;;41.92;38.85;;;;;;;;;;5014983;28;20201;-78
2022/01/29 10:46:28;;;;;;;52.17;47.13;;;;;;;;;;5013969;28;20199;-81
2022/01/29 10:48:56;;;;;;;48.57;44.30;;;;;;;;;;5014887;28;20226;-81
2022/01/29 10:51:23;;;;;;;49.47;45.10;;;;;;;;;;5015042;28;20472;-80
2022/01/29 10:53:53;;;;;;;44.30;40.85;;;;;;;;;;5014815;28;20188;-78
2022/01/29 10:56:20;;;;;;;39.88;36.22;;;;;;;;;;5015490;28;20207;-78
2022/01/29 10:58:50;;;;;;;34.13;31.52;;;;;;;;;;5015285;28;20187;-79
2022/01/29 11:01:18;;;;;;;46.90;42.10;;;;;;;;;;5014890;28;20235;-80
2022/01/29 11:03:46;;;;;;;40.75;36.95;;;;;;;;;;5014737;28;20630;-79
2022/01/29 11:06:16;;;;;;;33.00;30.33;;;;;;;;;;5020073;28;20573;-79
2022/01/29 11:08:45;;;;;;;47.00;42.65;;;;;;;;;;5034471;28;20273;-81
2022/01/29 11:11:14;;;;;;;38.25;35.60;;;;;;;;;;5034121;28;20338;-81
2022/01/29 11:13:41;;;;;;;45.10;41.47;;;;;;;;;;5049708;28;20642;-80
2022/01/29 11:16:09;;;;;;;40.78;37.33;;;;;;;;;;5054151;28;20188;-81
2022/01/29 11:18:36;;;;;;;38.45;35.17;;;;;;;;;;5053109;28;20209;-78
2022/01/29 11:21:04;;;;;;;43.17;39.03;;;;;;;;;;5053843;28;20191;-81
2022/01/29 11:23:32;;;;;;;37.30;34.70;;;;;;;;;;5053951;28;20209;-81
2022/01/29 11:26:01;;;;;;;44.10;40.35;;;;;;;;;;5054220;28;20195;-79
2022/01/29 11:28:32;;;;;;;42.03;38.75;;;;;;;;;;5054934;28;20657;-87
2022/01/29 11:31:20;;;;;;;34.40;32.10;;;;;;;;;;5055627;28;20672;-88
2022/01/29 11:34:08;;;;;;;38.65;35.45;;;;;;;;;;5054005;28;20566;-78
2022/01/29 11:36:50;;;;;;;46.50;42.50;;;;;;;;;;5053645;28;20278;-79
2022/01/29 11:39:21;;;;;;;43.00;39.63;;;;;;;;;;5053603;28;20213;-84
2022/01/29 11:42:08;;;;;;;40.47;36.80;;;;;;;;;;5053975;28;20555;-78
2022/01/29 11:44:37;;;;;;;37.93;34.97;;;;;;;;;;5035894;28;20568;-81
2022/01/29 11:47:37;;;;;;;42.55;38.95;;;;;;;;;;5054297;28;20453;-82
2022/01/29 11:50:23;;;;;;;41.30;37.70;;;;;;;;;;5053492;28;20211;-81
2022/01/29 11:52:54;;;;;;;39.80;36.57;;;;;;;;;;5053688;28;20195;-81
2022/01/29 11:55:34;;;;;;;43.67;40.08;;;;;;;;;;5053368;28;20484;-81
2022/01/29 11:58:16;;;;;;;41.30;37.90;;;;;;;;;;5057012;28;20215;-94
2022/01/29 12:00:46;;;;;;;45.17;40.87;;;;;;;;;;5054473;28;20287;-79
2022/01/29 12:03:28;;;;;;;47.37;44.17;;;;;;;;;;5053303;28;20465;-81
2022/01/29 12:06:23;;;;;;;54.05;49.10;;;;;;;;;;5052827;28;20463;-80
2022/01/29 12:09:21;;;;;;;48.05;44.05;;;;;;;;;;5036274;28;20580;-81
2022/01/29 12:12:03;;;;;;;49.13;45.03;;;;;;;;;;4991968;28;20241;-83
2022/01/29 12:14:30;;;;;;;60.25;54.20;;;;;;;;;;4991774;28;20207;-83
2022/01/29 12:17:12;;;;;;;55.80;50.97;;;;;;;;;;4993191;28;20595;-81
2022/01/29 12:19:42;;;;;;;56.67;51.22;;;;;;;;;;4918242;29;20491;-81
2022/01/29 12:22:10;;;;;;;54.67;49.53;;;;;;;;;;4934116;29;20216;-81
2022/01/29 12:24:38;;;;;;;51.07;46.77;;;;;;;;;;4934233;29;20301;-80
2022/01/29 12:27:05;;;;;;;63.20;56.70;;;;;;;;;;4934087;29;20897;-82
2022/01/29 12:29:33;;;;;;;49.50;45.47;;;;;;;;;;4934314;29;20194;-82
2022/01/29 12:32:00;;;;;;;52.83;48.20;;;;;;;;;;4934214;29;20271;-80
2022/01/29 12:34:28;;;;;;;50.10;46.13;;;;;;;;;;4933857;29;20195;-81
2022/01/29 12:37:09;;;;;;;43.23;40.03;;;;;;;;;;4933964;29;20214;-80
2022/01/29 12:39:37;;;;;;;44.67;41.47;;;;;;;;;;4933692;29;20945;-81
2022/01/29 12:42:12;;;;;;;47.97;44.33;;;;;;;;;;4934212;29;20538;-82
2022/01/29 12:44:40;;;;;;;49.60;45.43;;;;;;;;;;4933564;29;20443;-81
2022/01/29 12:47:08;;;;;;;47.42;43.72;;;;;;;;;;4990893;28;20519;-81
2022/01/29 12:49:47;;;;;;;46.08;42.83;;;;;;;;;;4991329;28;20200;-78
2022/01/29 12:52:20;;;;;;;46.77;43.50;;;;;;;;;;4991009;28;20307;-81
2022/01/29 12:54:52;;;;;;;50.60;46.50;;;;;;;;;;4991474;28;20416;-81
2022/01/29 12:57:19;;;;;;;50.80;46.70;;;;;;;;;;5031233;28;20207;-81
2022/01/29 12:59:47;;;;;;;48.15;44.40;;;;;;;;;;5053458;28;20188;-84
2022/01/29 13:02:14;;;;;;;41.77;38.80;;;;;;;;;;5053067;28;20192;-80
2022/01/29 13:04:46;;;;;;;46.28;42.47;;;;;;;;;;5053066;28;20885;-81
2022/01/29 13:07:14;;;;;;;49.05;44.60;;;;;;;;;;5053040;28;20641;-81
2022/01/29 13:09:43;;;;;;;45.30;42.00;;;;;;;;;;5053090;28;20217;-81
2022/01/29 13:12:11;;;;;;;49.75;45.42;;;;;;;;;;5053251;28;20552;-82
2022/01/29 13:14:40;;;;;;;43.20;39.70;;;;;;;;;;5056990;28;20194;-81
2022/01/29 13:17:07;;;;;;;52.53;47.75;;;;;;;;;;5056793;28;20187;-80
2022/01/29 13:19:35;;;;;;;39.77;36.70;;;;;;;;;;5056771;28;20203;-80
2022/01/29 13:22:03;;;;;;;32.90;30.67;;;;;;;;;;5057069;28;20429;-79
2022/01/29 13:24:35;;;;;;;38.83;35.67;;;;;;;;;;5056652;28;20464;-80
2022/01/29 13:27:07;;;;;;;44.67;40.37;;;;;;;;;;5056825;28;20497;-82
2022/01/29 13:29:36;;;;;;;39.53;36.37;;;;;;;;;;5056874;28;20446;-81
2022/01/29 13:32:04;;;;;;;45.83;41.70;;;;;;;;;;5056808;28;20619;-81
2022/01/29 13:34:32;;;;;;;43.57;39.67;;;;;;;;;;5057191;28;20418;-83
2022/01/29 13:36:59;;;;;;;39.73;36.33;;;;;;;;;;5056844;28;20462;-81
2022/01/29 13:39:27;;;;;;;40.23;37.13;;;;;;;;;;5056383;28;20917;-83
2022/01/29 13:42:21;;;;;;;35.50;32.80;;;;;;;;;;5056852;28;20416;-80
2022/01/29 13:45:09;;;;;;;42.23;38.40;;;;;;;;;;5057318;28;20796;-82
2022/01/29 13:47:37;;;;;;;32.93;30.67;;;;;;;;;;5056797;28;20748;-81
2022/01/29 13:50:22;;;;;;;36.50;33.77;;;;;;;;;;5056532;28;20438;-82
2022/01/29 13:52:58;;;;;;;33.30;30.77;;;;;;;;;;5056217;28;20471;-83
2022/01/29 13:55:25;;;;;;;34.60;31.90;;;;;;;;;;5056851;28;20639;-82
2022/01/29 13:58:01;;;;;;;30.52;28.25;;;;;;;;;;5056451;28;20242;-82
2022/01/29 14:00:28;;;;;;;31.30;29.00;;;;;;;;;;5056631;28;20279;-82
2022/01/29 14:02:55;;;;;;;34.07;31.50;;;;;;;;;;5056736;28;20850;-82
2022/01/29 14:05:25;;;;;;;36.93;29.60;;;;;;;;;;5056118;28;20875;-83
2022/01/29 14:07:52;;;;;;;30.38;28.38;;;;;;;;;;5056579;28;20481;-83
2022/01/29 14:10:19;;;;;;;30.35;28.50;;;;;;;;;;5056586;28;20258;-83
2022/01/29 14:12:48;;;;;;;36.78;34.13;;;;;;;;;;5056707;28;20244;-83
2022/01/29 14:15:17;;;;;;;36.30;33.70;;;;;;;;;;5056465;28;20279;-82
2022/01/29 14:17:45;;;;;;;31.80;29.77;;;;;;;;;;5056127;28;20450;-82
2022/01/29 14:20:14;;;;;;;29.70;27.67;;;;;;;;;;5055888;28;20705;-79
2022/01/29 14:22:42;;;;;;;35.00;32.50;;;;;;;;;;5056037;28;20471;-84
2022/01/29 14:25:10;;;;;;;29.40;27.20;;;;;;;;;;5037984;28;20556;-82
2022/01/29 14:27:38;;;;;;;32.37;29.87;;;;;;;;;;5055850;28;20417;-81
2022/01/29 14:30:06;;;;;;;30.67;28.57;;;;;;;;;;5055328;28;20412;-80
2022/01/29 14:32:35;;;;;;;26.93;25.33;;;;;;;;;;5055444;28;20467;-80
2022/01/29 14:35:03;;;;;;;29.67;27.03;;;;;;;;;;5055602;28;20438;-81
2022/01/29 14:37:31;;;;;;;30.13;27.93;;;;;;;;;;5055075;28;20905;-80
2022/01/29 14:39:58;;;;;;;29.35;27.63;;;;;;;;;;5055307;28;20434;-80